• Join FlightAware (Why Join?)
  • Login
  • US Flag 
03:56AM EDT


 

Airport Tracker/Info


-or-


 

Live Flight TrackerFlight Track Log ✈ OPT438 ✈ 23-Feb-2014 ✈ MYNN / NAS - KPBI

Flight Track Log - Related Links

Times and Time Zones

All times are in EST time to prevent confusion due to time zone crossing. See the OPT438 flight status page for this flight to view local times or setup timezone preferences in your user account.

Time Position Orientation Groundspeed Altitude Reporting Facility
EST Latitude Longitude Course Direction KTS MPH feet Rate Location/Type
05:28PM 25.0197 -77.4206 306° West 306 352 2,900  Level Miami Center
05:29PM 25.0719 -77.3956 23° Northeast 207 238 6,000 3,000 Climbing Miami Center
05:30PM 25.1136 -77.4508 310° West 128 147 9,000 2,940 Climbing Miami Center
05:31PM 25.1508 -77.5269 298° West 173 199 11,900 2,880 Climbing Miami Center
05:32PM 25.1839 -77.5961 298° West 226 260 14,800 2,700 Climbing Miami Center
05:33PM 25.2192 -77.6675 299° West 250 288 17,400 2,340 Climbing Miami Center
05:34PM 25.2920 -77.8712 306° West  Level FlightAware Approximate
05:34PM 25.2542 -77.7433 297° West 270 311 19,500  Level Miami Center
05:35PM 25.2997 -77.8150 305° West 276 318 22,000 1,200 Climbing Miami Center
05:36PM 25.3514 -77.8914 307° West 294 338 22,000  Level Miami Center
05:37PM 25.4053 -77.9653 309° West 306 352 22,000  Level Miami Center
05:38PM 25.4550 -78.0325 309° West 300 345 22,000  Level Miami Center
05:39PM 25.5044 -78.1022 308° West 293 337 22,000  Level Miami Center
05:40PM 25.5542 -78.1717 308° West 293 337 22,000  Level Miami Center
05:41PM 25.6056 -78.2414 309° West 293 337 22,000  Level Miami Center
05:42PM 25.6531 -78.3111 307° West 293 337 22,000  Level Miami Center
05:43PM 25.7047 -78.3786 310° West 293 337 22,000  Level Miami Center
05:45PM 25.7950 -78.5228 304° West 293 337 22,000 -60 Level Miami Center
05:48PM 25.9178 -78.7442 302° West 288 331 21,700 -540 Descending Miami Center
05:49PM 25.9606 -78.8211 302° West 293 337 20,000 -900 Descending Miami Center
05:50PM 26.0036 -78.8911 304° West 293 337 20,000 -120 Level Miami Center
05:51PM 26.0525 -78.9681 305° West 283 326 19,800 -1,140 Descending Miami Center
05:52PM 26.0933 -79.0431 301° West 283 326 17,800 -2,040 Descending Miami Center
05:53PM 26.1361 -79.1178 303° West 283 326 15,800 -2,040 Descending Miami Center
05:54PM 26.1155 -79.0813 302° West  Level FlightAware Approximate
05:54PM 26.1767 -79.1903 302° West 278 320 13,800  Level Miami Center
05:55PM 26.2153 -79.2583 302° West 278 320 12,000 -1,860 Descending Miami Center
05:56PM 26.2517 -79.3308 299° West 273 314 10,100 -1,860 Descending Miami Center
05:57PM 26.2922 -79.3942 306° West 273 314 8,300 -2,040 Descending Miami Center
05:58PM 26.3347 -79.4739 301° West 273 314 6,100 -1,680 Descending Miami Center
05:59PM 26.3692 -79.5350 302° West 267 307 5,000 -600 Descending Miami Center
06:00PM 26.4094 -79.6100 301° West 267 307 5,000 -120 Level Miami Center
06:01PM 26.4439 -79.6689 303° West 261 300 4,800 -360 Descending Miami Center
06:02PM 26.4844 -79.7417 302° West 261 300 4,300 -420 Descending Miami Center
06:03PM 26.5122 -79.8075 295° West 261 300 4,000 -180 Descending Miami Center
06:04PM 26.5314 -79.8917 284° West 250 288 4,000  Level Miami Center
06:05PM 26.5467 -79.9547 285° West 243 280 4,000  Level Miami Center
06:06PM 26.5681 -80.0342 287° West 243 280 4,000  Level Miami Center
06:07PM 26.5814 -80.0950 284° West 243 280 4,000  Level Miami Center
06:09PM 26.6667 -80.0833 North  Level FlightAware Approximate
06:16PM 26.6832 -80.0956 North  Level Estimated
06:17PM 26.6832 -80.0956 North  Level Estimated
06:18PM 26.6832 -80.0956 North  Level Estimated
06:19PM 26.6832 -80.0956 North  Level Estimated
06:20PM 26.6832 -80.0956 North  Level Estimated
06:21PM 26.6832 -80.0956 North  Level Estimated
06:22PM 26.6832 -80.0956 North  Level Estimated
06:23PM 26.6832 -80.0956 North  Level Estimated
06:24PM 26.6832 -80.0956 North  Level Estimated